sensor_id;sensor_type;location;lat;lon;timestamp;P1;durP1;ratioP1;P2;durP2;ratioP2
36931;SDS011;22847;42.654;23.370;2023-03-08T00:00:34;12.93;;;5.28;;
36931;SDS011;22847;42.654;23.370;2023-03-08T00:03:00;10.50;;;5.10;;
36931;SDS011;22847;42.654;23.370;2023-03-08T00:05:26;8.00;;;4.47;;
36931;SDS011;22847;42.654;23.370;2023-03-08T00:07:52;11.85;;;5.25;;
36931;SDS011;22847;42.654;23.370;2023-03-08T00:10:18;10.43;;;5.93;;
36931;SDS011;22847;42.654;23.370;2023-03-08T00:12:43;13.93;;;6.05;;
36931;SDS011;22847;42.654;23.370;2023-03-08T00:15:09;10.45;;;5.32;;
36931;SDS011;22847;42.654;23.370;2023-03-08T00:17:38;13.55;;;6.13;;
36931;SDS011;22847;42.654;23.370;2023-03-08T00:20:04;15.40;;;5.88;;
36931;SDS011;22847;42.654;23.370;2023-03-08T00:22:35;9.80;;;4.63;;
36931;SDS011;22847;42.654;23.370;2023-03-08T00:25:04;9.13;;;5.03;;
36931;SDS011;22847;42.654;23.370;2023-03-08T00:27:33;14.05;;;4.90;;
36931;SDS011;22847;42.654;23.370;2023-03-08T00:29:58;10.70;;;4.93;;
36931;SDS011;22847;42.654;23.370;2023-03-08T00:32:24;9.00;;;4.82;;
36931;SDS011;22847;42.654;23.370;2023-03-08T00:34:50;9.77;;;4.35;;
36931;SDS011;22847;42.654;23.370;2023-03-08T00:37:16;7.95;;;4.25;;
36931;SDS011;22847;42.654;23.370;2023-03-08T00:39:42;9.55;;;5.32;;
36931;SDS011;22847;42.654;23.370;2023-03-08T00:42:07;9.05;;;4.70;;
36931;SDS011;22847;42.654;23.370;2023-03-08T00:44:33;11.63;;;4.70;;
36931;SDS011;22847;42.654;23.370;2023-03-08T00:46:58;12.02;;;4.88;;
36931;SDS011;22847;42.654;23.370;2023-03-08T00:49:24;9.07;;;4.40;;
36931;SDS011;22847;42.654;23.370;2023-03-08T00:51:50;12.60;;;4.50;;
36931;SDS011;22847;42.654;23.370;2023-03-08T00:54:15;11.55;;;5.30;;
36931;SDS011;22847;42.654;23.370;2023-03-08T00:56:41;11.43;;;4.85;;
36931;SDS011;22847;42.654;23.370;2023-03-08T00:59:06;7.47;;;4.57;;
36931;SDS011;22847;42.654;23.370;2023-03-08T01:01:31;7.85;;;4.63;;
36931;SDS011;22847;42.654;23.370;2023-03-08T01:03:57;10.00;;;5.38;;
36931;SDS011;22847;42.654;23.370;2023-03-08T01:06:23;10.45;;;5.32;;
36931;SDS011;22847;42.654;23.370;2023-03-08T01:08:49;11.85;;;5.65;;
36931;SDS011;22847;42.654;23.370;2023-03-08T01:11:24;9.57;;;4.97;;
36931;SDS011;22847;42.654;23.370;2023-03-08T01:13:51;10.30;;;5.22;;
36931;SDS011;22847;42.654;23.370;2023-03-08T01:16:21;14.30;;;5.63;;
36931;SDS011;22847;42.654;23.370;2023-03-08T01:18:48;12.05;;;5.75;;
36931;SDS011;22847;42.654;23.370;2023-03-08T01:21:14;10.90;;;5.57;;
36931;SDS011;22847;42.654;23.370;2023-03-08T01:23:40;12.00;;;4.80;;
36931;SDS011;22847;42.654;23.370;2023-03-08T01:26:07;12.32;;;5.53;;
36931;SDS011;22847;42.654;23.370;2023-03-08T01:28:35;10.02;;;5.07;;
36931;SDS011;22847;42.654;23.370;2023-03-08T01:31:01;10.60;;;5.07;;
36931;SDS011;22847;42.654;23.370;2023-03-08T01:33:27;14.90;;;4.85;;
36931;SDS011;22847;42.654;23.370;2023-03-08T01:35:52;7.85;;;4.18;;
36931;SDS011;22847;42.654;23.370;2023-03-08T01:38:18;9.02;;;4.88;;
36931;SDS011;22847;42.654;23.370;2023-03-08T01:40:43;9.48;;;4.78;;
36931;SDS011;22847;42.654;23.370;2023-03-08T01:51:36;13.85;;;5.07;;
36931;SDS011;22847;42.654;23.370;2023-03-08T01:54:08;7.35;;;4.15;;
36931;SDS011;22847;42.654;23.370;2023-03-08T01:56:39;10.15;;;4.50;;
36931;SDS011;22847;42.654;23.370;2023-03-08T01:59:06;9.13;;;4.97;;
36931;SDS011;22847;42.654;23.370;2023-03-08T02:01:32;8.25;;;4.47;;
36931;SDS011;22847;42.654;23.370;2023-03-08T02:03:58;10.13;;;5.45;;
36931;SDS011;22847;42.654;23.370;2023-03-08T02:06:24;13.32;;;5.75;;
36931;SDS011;22847;42.654;23.370;2023-03-08T02:08:49;10.70;;;5.85;;
36931;SDS011;22847;42.654;23.370;2023-03-08T02:11:15;9.82;;;5.35;;
36931;SDS011;22847;42.654;23.370;2023-03-08T02:13:42;10.93;;;5.35;;
36931;SDS011;22847;42.654;23.370;2023-03-08T02:16:09;11.23;;;5.22;;
36931;SDS011;22847;42.654;23.370;2023-03-08T02:18:47;10.98;;;5.57;;
36931;SDS011;22847;42.654;23.370;2023-03-08T02:21:18;9.23;;;5.10;;
36931;SDS011;22847;42.654;23.370;2023-03-08T02:23:44;13.32;;;6.53;;
36931;SDS011;22847;42.654;23.370;2023-03-08T02:26:09;12.02;;;5.78;;
36931;SDS011;22847;42.654;23.370;2023-03-08T02:28:35;11.05;;;5.18;;
36931;SDS011;22847;42.654;23.370;2023-03-08T02:31:00;9.65;;;5.18;;
36931;SDS011;22847;42.654;23.370;2023-03-08T02:33:26;15.77;;;7.38;;
36931;SDS011;22847;42.654;23.370;2023-03-08T02:35:52;14.07;;;6.97;;
36931;SDS011;22847;42.654;23.370;2023-03-08T02:38:18;12.90;;;6.07;;
36931;SDS011;22847;42.654;23.370;2023-03-08T02:40:45;10.80;;;6.28;;
36931;SDS011;22847;42.654;23.370;2023-03-08T02:43:10;11.23;;;6.18;;
36931;SDS011;22847;42.654;23.370;2023-03-08T02:45:36;12.52;;;6.43;;
36931;SDS011;22847;42.654;23.370;2023-03-08T02:48:02;13.20;;;5.47;;
36931;SDS011;22847;42.654;23.370;2023-03-08T02:50:30;11.05;;;5.88;;
36931;SDS011;22847;42.654;23.370;2023-03-08T02:52:56;12.75;;;5.65;;
36931;SDS011;22847;42.654;23.370;2023-03-08T02:55:21;17.10;;;6.05;;
36931;SDS011;22847;42.654;23.370;2023-03-08T02:57:47;14.25;;;5.80;;
36931;SDS011;22847;42.654;23.370;2023-03-08T03:00:12;9.70;;;5.20;;
36931;SDS011;22847;42.654;23.370;2023-03-08T03:02:38;10.07;;;5.80;;
36931;SDS011;22847;42.654;23.370;2023-03-08T03:05:04;13.73;;;6.35;;
36931;SDS011;22847;42.654;23.370;2023-03-08T03:07:33;12.35;;;5.68;;
36931;SDS011;22847;42.654;23.370;2023-03-08T03:09:59;12.75;;;5.32;;
36931;SDS011;22847;42.654;23.370;2023-03-08T03:12:25;10.60;;;5.75;;
36931;SDS011;22847;42.654;23.370;2023-03-08T03:14:50;10.68;;;5.32;;
36931;SDS011;22847;42.654;23.370;2023-03-08T03:17:15;11.07;;;5.78;;
36931;SDS011;22847;42.654;23.370;2023-03-08T03:19:41;14.68;;;5.35;;
36931;SDS011;22847;42.654;23.370;2023-03-08T03:22:06;12.27;;;5.30;;
36931;SDS011;22847;42.654;23.370;2023-03-08T03:24:31;11.20;;;5.45;;
36931;SDS011;22847;42.654;23.370;2023-03-08T03:26:57;10.52;;;5.97;;
36931;SDS011;22847;42.654;23.370;2023-03-08T03:29:22;11.60;;;6.22;;
36931;SDS011;22847;42.654;23.370;2023-03-08T03:31:48;15.07;;;6.78;;
36931;SDS011;22847;42.654;23.370;2023-03-08T03:34:13;10.55;;;5.60;;
36931;SDS011;22847;42.654;23.370;2023-03-08T03:36:38;12.05;;;5.55;;
36931;SDS011;22847;42.654;23.370;2023-03-08T03:39:04;10.52;;;5.38;;
36931;SDS011;22847;42.654;23.370;2023-03-08T03:41:29;13.05;;;5.65;;
36931;SDS011;22847;42.654;23.370;2023-03-08T03:43:55;11.32;;;5.70;;
36931;SDS011;22847;42.654;23.370;2023-03-08T03:46:22;12.73;;;6.07;;
36931;SDS011;22847;42.654;23.370;2023-03-08T03:48:47;21.23;;;9.35;;
36931;SDS011;22847;42.654;23.370;2023-03-08T03:51:14;17.77;;;7.47;;
36931;SDS011;22847;42.654;23.370;2023-03-08T03:53:41;11.93;;;6.45;;
36931;SDS011;22847;42.654;23.370;2023-03-08T03:56:12;9.23;;;5.95;;
36931;SDS011;22847;42.654;23.370;2023-03-08T03:58:45;13.45;;;5.70;;
36931;SDS011;22847;42.654;23.370;2023-03-08T04:01:15;11.00;;;5.15;;
36931;SDS011;22847;42.654;23.370;2023-03-08T04:06:12;18.02;;;6.97;;
36931;SDS011;22847;42.654;23.370;2023-03-08T04:08:41;17.98;;;6.18;;
36931;SDS011;22847;42.654;23.370;2023-03-08T04:11:11;16.83;;;5.50;;
36931;SDS011;22847;42.654;23.370;2023-03-08T04:13:38;10.20;;;5.50;;
36931;SDS011;22847;42.654;23.370;2023-03-08T04:16:10;21.88;;;5.72;;
36931;SDS011;22847;42.654;23.370;2023-03-08T04:18:37;10.18;;;4.90;;
36931;SDS011;22847;42.654;23.370;2023-03-08T04:21:03;9.02;;;5.82;;
36931;SDS011;22847;42.654;23.370;2023-03-08T04:23:29;14.05;;;6.15;;
36931;SDS011;22847;42.654;23.370;2023-03-08T04:25:54;14.32;;;5.57;;
36931;SDS011;22847;42.654;23.370;2023-03-08T04:28:19;17.85;;;7.13;;
36931;SDS011;22847;42.654;23.370;2023-03-08T04:30:45;14.48;;;6.70;;
36931;SDS011;22847;42.654;23.370;2023-03-08T04:33:10;14.57;;;7.20;;
36931;SDS011;22847;42.654;23.370;2023-03-08T04:35:36;11.13;;;6.35;;
36931;SDS011;22847;42.654;23.370;2023-03-08T04:38:01;12.95;;;5.97;;
36931;SDS011;22847;42.654;23.370;2023-03-08T04:40:27;10.65;;;6.03;;
36931;SDS011;22847;42.654;23.370;2023-03-08T04:42:52;15.10;;;6.57;;
36931;SDS011;22847;42.654;23.370;2023-03-08T04:45:17;9.82;;;5.63;;
36931;SDS011;22847;42.654;23.370;2023-03-08T04:47:43;12.45;;;5.43;;
36931;SDS011;22847;42.654;23.370;2023-03-08T04:50:08;13.85;;;6.63;;
36931;SDS011;22847;42.654;23.370;2023-03-08T04:52:34;16.20;;;5.82;;
36931;SDS011;22847;42.654;23.370;2023-03-08T04:55:00;11.60;;;5.30;;
36931;SDS011;22847;42.654;23.370;2023-03-08T04:57:25;12.15;;;5.35;;
36931;SDS011;22847;42.654;23.370;2023-03-08T04:59:51;12.75;;;5.63;;
36931;SDS011;22847;42.654;23.370;2023-03-08T05:02:16;18.63;;;6.10;;
36931;SDS011;22847;42.654;23.370;2023-03-08T05:04:41;23.10;;;6.40;;
36931;SDS011;22847;42.654;23.370;2023-03-08T05:07:07;12.80;;;6.03;;
36931;SDS011;22847;42.654;23.370;2023-03-08T05:09:32;15.60;;;6.55;;
36931;SDS011;22847;42.654;23.370;2023-03-08T05:11:57;16.23;;;6.65;;
36931;SDS011;22847;42.654;23.370;2023-03-08T05:14:23;17.02;;;7.35;;
36931;SDS011;22847;42.654;23.370;2023-03-08T05:16:49;11.98;;;6.32;;
36931;SDS011;22847;42.654;23.370;2023-03-08T05:19:14;12.98;;;7.40;;
36931;SDS011;22847;42.654;23.370;2023-03-08T05:21:40;20.25;;;7.30;;
36931;SDS011;22847;42.654;23.370;2023-03-08T05:24:05;19.45;;;7.40;;
36931;SDS011;22847;42.654;23.370;2023-03-08T05:26:31;16.80;;;7.63;;
36931;SDS011;22847;42.654;23.370;2023-03-08T05:28:59;19.95;;;6.80;;
36931;SDS011;22847;42.654;23.370;2023-03-08T05:31:26;14.38;;;6.68;;
36931;SDS011;22847;42.654;23.370;2023-03-08T05:33:52;18.35;;;8.98;;
36931;SDS011;22847;42.654;23.370;2023-03-08T05:36:18;12.50;;;7.10;;
36931;SDS011;22847;42.654;23.370;2023-03-08T05:38:44;20.65;;;7.10;;
36931;SDS011;22847;42.654;23.370;2023-03-08T05:41:13;26.83;;;8.10;;
36931;SDS011;22847;42.654;23.370;2023-03-08T05:43:40;14.52;;;7.32;;
36931;SDS011;22847;42.654;23.370;2023-03-08T05:46:07;18.67;;;9.38;;
36931;SDS011;22847;42.654;23.370;2023-03-08T05:48:35;13.65;;;7.25;;
36931;SDS011;22847;42.654;23.370;2023-03-08T05:51:04;12.60;;;7.15;;
36931;SDS011;22847;42.654;23.370;2023-03-08T05:53:31;24.92;;;11.70;;
36931;SDS011;22847;42.654;23.370;2023-03-08T05:55:56;17.55;;;7.70;;
36931;SDS011;22847;42.654;23.370;2023-03-08T05:58:21;12.02;;;6.60;;
36931;SDS011;22847;42.654;23.370;2023-03-08T06:00:47;18.92;;;6.97;;
36931;SDS011;22847;42.654;23.370;2023-03-08T06:03:12;20.88;;;7.00;;
36931;SDS011;22847;42.654;23.370;2023-03-08T06:05:37;23.25;;;7.28;;
36931;SDS011;22847;42.654;23.370;2023-03-08T06:08:03;13.80;;;6.63;;
36931;SDS011;22847;42.654;23.370;2023-03-08T06:10:29;14.95;;;7.53;;
36931;SDS011;22847;42.654;23.370;2023-03-08T06:12:54;16.45;;;6.47;;
36931;SDS011;22847;42.654;23.370;2023-03-08T06:15:19;17.08;;;6.80;;
36931;SDS011;22847;42.654;23.370;2023-03-08T06:17:45;20.13;;;6.65;;
36931;SDS011;22847;42.654;23.370;2023-03-08T06:20:10;15.10;;;6.50;;
36931;SDS011;22847;42.654;23.370;2023-03-08T06:22:38;9.95;;;5.90;;
36931;SDS011;22847;42.654;23.370;2023-03-08T06:25:04;15.35;;;6.43;;
36931;SDS011;22847;42.654;23.370;2023-03-08T06:27:30;19.20;;;7.80;;
36931;SDS011;22847;42.654;23.370;2023-03-08T06:29:55;16.80;;;6.85;;
36931;SDS011;22847;42.654;23.370;2023-03-08T06:32:20;19.75;;;6.47;;
36931;SDS011;22847;42.654;23.370;2023-03-08T06:34:46;14.45;;;6.97;;
36931;SDS011;22847;42.654;23.370;2023-03-08T06:37:12;17.75;;;6.68;;
36931;SDS011;22847;42.654;23.370;2023-03-08T06:39:37;20.60;;;7.28;;
36931;SDS011;22847;42.654;23.370;2023-03-08T06:42:03;14.85;;;6.35;;
36931;SDS011;22847;42.654;23.370;2023-03-08T06:44:28;17.40;;;6.57;;
36931;SDS011;22847;42.654;23.370;2023-03-08T06:46:55;11.77;;;6.13;;
36931;SDS011;22847;42.654;23.370;2023-03-08T06:49:21;15.90;;;6.68;;
36931;SDS011;22847;42.654;23.370;2023-03-08T06:51:47;40.97;;;22.17;;
36931;SDS011;22847;42.654;23.370;2023-03-08T06:54:12;19.63;;;7.68;;
36931;SDS011;22847;42.654;23.370;2023-03-08T06:56:42;19.98;;;6.70;;
36931;SDS011;22847;42.654;23.370;2023-03-08T06:59:08;15.82;;;6.85;;
36931;SDS011;22847;42.654;23.370;2023-03-08T07:01:34;17.88;;;7.00;;
36931;SDS011;22847;42.654;23.370;2023-03-08T07:04:00;17.40;;;9.07;;
36931;SDS011;22847;42.654;23.370;2023-03-08T07:06:25;20.00;;;9.38;;
36931;SDS011;22847;42.654;23.370;2023-03-08T07:08:51;17.95;;;6.97;;
36931;SDS011;22847;42.654;23.370;2023-03-08T07:11:16;26.05;;;10.38;;
36931;SDS011;22847;42.654;23.370;2023-03-08T07:13:42;16.42;;;7.82;;
36931;SDS011;22847;42.654;23.370;2023-03-08T07:16:08;14.80;;;7.20;;
36931;SDS011;22847;42.654;23.370;2023-03-08T07:18:35;15.57;;;6.75;;
36931;SDS011;22847;42.654;23.370;2023-03-08T07:21:00;14.15;;;7.03;;
36931;SDS011;22847;42.654;23.370;2023-03-08T07:23:25;18.48;;;6.70;;
36931;SDS011;22847;42.654;23.370;2023-03-08T07:25:51;17.23;;;8.88;;
36931;SDS011;22847;42.654;23.370;2023-03-08T07:28:16;18.17;;;7.13;;
36931;SDS011;22847;42.654;23.370;2023-03-08T07:30:45;21.80;;;10.73;;
36931;SDS011;22847;42.654;23.370;2023-03-08T07:33:12;18.40;;;7.45;;
36931;SDS011;22847;42.654;23.370;2023-03-08T07:35:38;25.17;;;8.85;;
36931;SDS011;22847;42.654;23.370;2023-03-08T07:38:03;13.70;;;6.50;;
36931;SDS011;22847;42.654;23.370;2023-03-08T07:40:29;13.38;;;6.97;;
36931;SDS011;22847;42.654;23.370;2023-03-08T07:42:54;15.50;;;6.32;;
36931;SDS011;22847;42.654;23.370;2023-03-08T07:45:19;18.17;;;7.72;;
36931;SDS011;22847;42.654;23.370;2023-03-08T07:47:45;22.77;;;7.95;;
36931;SDS011;22847;42.654;23.370;2023-03-08T07:50:14;17.77;;;8.30;;
36931;SDS011;22847;42.654;23.370;2023-03-08T07:52:40;16.13;;;7.53;;
36931;SDS011;22847;42.654;23.370;2023-03-08T07:55:05;18.42;;;9.20;;
36931;SDS011;22847;42.654;23.370;2023-03-08T07:57:31;14.77;;;7.03;;
36931;SDS011;22847;42.654;23.370;2023-03-08T07:59:57;15.73;;;6.75;;
36931;SDS011;22847;42.654;23.370;2023-03-08T08:02:22;15.65;;;7.43;;
36931;SDS011;22847;42.654;23.370;2023-03-08T08:04:47;16.42;;;7.47;;
36931;SDS011;22847;42.654;23.370;2023-03-08T08:07:15;25.25;;;8.02;;
36931;SDS011;22847;42.654;23.370;2023-03-08T08:09:40;21.10;;;7.85;;
36931;SDS011;22847;42.654;23.370;2023-03-08T08:12:06;21.38;;;7.32;;
36931;SDS011;22847;42.654;23.370;2023-03-08T08:14:31;18.08;;;7.78;;
36931;SDS011;22847;42.654;23.370;2023-03-08T08:16:57;15.95;;;7.55;;
36931;SDS011;22847;42.654;23.370;2023-03-08T08:19:23;15.38;;;7.93;;
36931;SDS011;22847;42.654;23.370;2023-03-08T08:21:49;17.90;;;7.55;;
36931;SDS011;22847;42.654;23.370;2023-03-08T08:24:14;19.70;;;7.78;;
36931;SDS011;22847;42.654;23.370;2023-03-08T08:26:40;23.40;;;7.50;;
36931;SDS011;22847;42.654;23.370;2023-03-08T08:29:05;14.90;;;7.30;;
36931;SDS011;22847;42.654;23.370;2023-03-08T08:31:31;18.27;;;8.15;;
36931;SDS011;22847;42.654;23.370;2023-03-08T08:33:56;12.57;;;6.38;;
36931;SDS011;22847;42.654;23.370;2023-03-08T08:36:23;18.40;;;7.65;;
36931;SDS011;22847;42.654;23.370;2023-03-08T08:38:49;14.98;;;7.03;;
36931;SDS011;22847;42.654;23.370;2023-03-08T08:41:16;19.20;;;7.28;;
36931;SDS011;22847;42.654;23.370;2023-03-08T08:43:44;14.07;;;6.50;;
36931;SDS011;22847;42.654;23.370;2023-03-08T08:46:10;15.93;;;6.38;;
36931;SDS011;22847;42.654;23.370;2023-03-08T08:48:36;20.25;;;7.00;;
36931;SDS011;22847;42.654;23.370;2023-03-08T08:51:03;14.73;;;7.13;;
36931;SDS011;22847;42.654;23.370;2023-03-08T08:53:32;15.38;;;7.32;;
36931;SDS011;22847;42.654;23.370;2023-03-08T08:55:58;15.07;;;7.35;;
36931;SDS011;22847;42.654;23.370;2023-03-08T08:58:24;19.05;;;7.95;;
36931;SDS011;22847;42.654;23.370;2023-03-08T09:00:50;23.10;;;8.02;;
36931;SDS011;22847;42.654;23.370;2023-03-08T09:03:16;20.15;;;8.10;;
36931;SDS011;22847;42.654;23.370;2023-03-08T09:05:42;14.35;;;7.28;;
36931;SDS011;22847;42.654;23.370;2023-03-08T09:08:08;13.77;;;7.40;;
36931;SDS011;22847;42.654;23.370;2023-03-08T09:10:36;14.10;;;7.40;;
36931;SDS011;22847;42.654;23.370;2023-03-08T09:13:20;18.25;;;7.57;;
36931;SDS011;22847;42.654;23.370;2023-03-08T09:15:46;19.25;;;7.00;;
36931;SDS011;22847;42.654;23.370;2023-03-08T09:18:11;19.65;;;7.88;;
36931;SDS011;22847;42.654;23.370;2023-03-08T09:20:37;20.05;;;7.85;;
36931;SDS011;22847;42.654;23.370;2023-03-08T09:23:03;18.77;;;8.20;;
36931;SDS011;22847;42.654;23.370;2023-03-08T09:25:28;20.98;;;8.40;;
36931;SDS011;22847;42.654;23.370;2023-03-08T09:27:53;24.42;;;8.60;;
36931;SDS011;22847;42.654;23.370;2023-03-08T09:30:19;22.45;;;8.25;;
36931;SDS011;22847;42.654;23.370;2023-03-08T09:32:44;23.90;;;9.30;;
36931;SDS011;22847;42.654;23.370;2023-03-08T09:35:12;19.17;;;8.27;;
36931;SDS011;22847;42.654;23.370;2023-03-08T09:37:39;22.38;;;9.05;;
36931;SDS011;22847;42.654;23.370;2023-03-08T09:40:04;15.63;;;8.07;;
36931;SDS011;22847;42.654;23.370;2023-03-08T09:42:33;13.13;;;7.68;;
36931;SDS011;22847;42.654;23.370;2023-03-08T09:47:51;19.13;;;8.40;;
36931;SDS011;22847;42.654;23.370;2023-03-08T09:50:50;24.42;;;9.10;;
36931;SDS011;22847;42.654;23.370;2023-03-08T09:53:20;17.80;;;8.52;;
36931;SDS011;22847;42.654;23.370;2023-03-08T09:56:38;19.20;;;8.80;;
36931;SDS011;22847;42.654;23.370;2023-03-08T09:59:15;17.60;;;8.20;;
36931;SDS011;22847;42.654;23.370;2023-03-08T10:15:35;20.60;;;10.82;;
36931;SDS011;22847;42.654;23.370;2023-03-08T10:20:39;20.38;;;9.63;;
36931;SDS011;22847;42.654;23.370;2023-03-08T10:23:16;13.38;;;8.43;;
36931;SDS011;22847;42.654;23.370;2023-03-08T10:25:43;19.33;;;7.50;;
36931;SDS011;22847;42.654;23.370;2023-03-08T10:28:14;17.27;;;7.78;;
36931;SDS011;22847;42.654;23.370;2023-03-08T10:30:48;18.50;;;7.53;;
36931;SDS011;22847;42.654;23.370;2023-03-08T10:33:17;31.30;;;8.05;;
36931;SDS011;22847;42.654;23.370;2023-03-08T10:35:55;14.13;;;7.75;;
36931;SDS011;22847;42.654;23.370;2023-03-08T10:38:25;12.00;;;7.47;;
36931;SDS011;22847;42.654;23.370;2023-03-08T10:41:02;17.63;;;7.60;;
36931;SDS011;22847;42.654;23.370;2023-03-08T10:43:31;15.20;;;8.45;;
36931;SDS011;22847;42.654;23.370;2023-03-08T10:46:04;17.65;;;7.97;;
36931;SDS011;22847;42.654;23.370;2023-03-08T10:48:34;16.65;;;8.20;;
36931;SDS011;22847;42.654;23.370;2023-03-08T10:51:04;21.80;;;7.95;;
36931;SDS011;22847;42.654;23.370;2023-03-08T10:53:39;19.83;;;7.97;;
36931;SDS011;22847;42.654;23.370;2023-03-08T10:56:14;18.05;;;8.07;;
36931;SDS011;22847;42.654;23.370;2023-03-08T10:58:48;17.27;;;8.40;;
36931;SDS011;22847;42.654;23.370;2023-03-08T11:01:27;15.10;;;7.70;;
36931;SDS011;22847;42.654;23.370;2023-03-08T11:04:00;23.15;;;8.48;;
36931;SDS011;22847;42.654;23.370;2023-03-08T11:06:30;17.80;;;8.80;;
36931;SDS011;22847;42.654;23.370;2023-03-08T11:08:57;17.80;;;8.25;;
36931;SDS011;22847;42.654;23.370;2023-03-08T11:11:26;20.85;;;8.45;;
36931;SDS011;22847;42.654;23.370;2023-03-08T11:13:52;23.10;;;8.40;;
36931;SDS011;22847;42.654;23.370;2023-03-08T11:16:27;16.13;;;7.68;;
36931;SDS011;22847;42.654;23.370;2023-03-08T11:19:30;15.32;;;7.40;;
36931;SDS011;22847;42.654;23.370;2023-03-08T11:27:36;12.98;;;7.03;;
36931;SDS011;22847;42.654;23.370;2023-03-08T11:38:29;14.90;;;8.00;;
36931;SDS011;22847;42.654;23.370;2023-03-08T11:51:18;13.75;;;5.97;;
36931;SDS011;22847;42.654;23.370;2023-03-08T11:59:47;10.35;;;6.32;;
36931;SDS011;22847;42.654;23.370;2023-03-08T12:02:19;14.80;;;5.03;;
36931;SDS011;22847;42.654;23.370;2023-03-08T12:05:09;6.95;;;4.32;;
36931;SDS011;22847;42.654;23.370;2023-03-08T12:07:51;11.65;;;5.10;;
36931;SDS011;22847;42.654;23.370;2023-03-08T12:18:13;16.42;;;5.03;;
36931;SDS011;22847;42.654;23.370;2023-03-08T12:20:42;18.58;;;6.60;;
36931;SDS011;22847;42.654;23.370;2023-03-08T12:25:44;5.28;;;2.40;;
36931;SDS011;22847;42.654;23.370;2023-03-08T12:35:52;3.78;;;1.55;;
36931;SDS011;22847;42.654;23.370;2023-03-08T12:40:46;3.50;;;2.00;;
36931;SDS011;22847;42.654;23.370;2023-03-08T12:43:27;4.68;;;2.40;;
36931;SDS011;22847;42.654;23.370;2023-03-08T12:48:24;7.57;;;2.13;;
36931;SDS011;22847;42.654;23.370;2023-03-08T12:54:02;2.90;;;1.90;;
36931;SDS011;22847;42.654;23.370;2023-03-08T12:59:01;4.97;;;1.80;;
36931;SDS011;22847;42.654;23.370;2023-03-08T13:01:36;7.22;;;2.05;;
36931;SDS011;22847;42.654;23.370;2023-03-08T13:04:06;8.65;;;1.75;;
36931;SDS011;22847;42.654;23.370;2023-03-08T13:09:34;5.70;;;1.90;;
36931;SDS011;22847;42.654;23.370;2023-03-08T13:14:40;2.63;;;1.70;;
36931;SDS011;22847;42.654;23.370;2023-03-08T13:19:51;5.88;;;1.88;;
36931;SDS011;22847;42.654;23.370;2023-03-08T13:22:19;7.47;;;4.88;;
36931;SDS011;22847;42.654;23.370;2023-03-08T13:28:13;6.65;;;2.60;;
36931;SDS011;22847;42.654;23.370;2023-03-08T13:35:58;6.97;;;4.57;;
36931;SDS011;22847;42.654;23.370;2023-03-08T13:38:29;8.07;;;3.28;;
36931;SDS011;22847;42.654;23.370;2023-03-08T13:40:56;7.90;;;3.30;;
36931;SDS011;22847;42.654;23.370;2023-03-08T13:43:24;3.22;;;1.90;;
36931;SDS011;22847;42.654;23.370;2023-03-08T13:45:52;6.70;;;2.95;;
36931;SDS011;22847;42.654;23.370;2023-03-08T13:48:20;7.68;;;2.33;;
36931;SDS011;22847;42.654;23.370;2023-03-08T13:50:49;4.50;;;1.85;;
36931;SDS011;22847;42.654;23.370;2023-03-08T13:53:20;5.50;;;2.28;;
36931;SDS011;22847;42.654;23.370;2023-03-08T13:55:50;4.85;;;2.17;;
36931;SDS011;22847;42.654;23.370;2023-03-08T13:58:24;5.15;;;2.78;;
36931;SDS011;22847;42.654;23.370;2023-03-08T14:03:35;2.85;;;2.00;;
36931;SDS011;22847;42.654;23.370;2023-03-08T14:06:00;4.35;;;1.88;;
36931;SDS011;22847;42.654;23.370;2023-03-08T14:08:26;4.30;;;2.38;;
36931;SDS011;22847;42.654;23.370;2023-03-08T14:13:25;10.15;;;2.70;;
36931;SDS011;22847;42.654;23.370;2023-03-08T14:15:55;8.87;;;4.37;;
36931;SDS011;22847;42.654;23.370;2023-03-08T14:18:24;14.43;;;7.95;;
36931;SDS011;22847;42.654;23.370;2023-03-08T14:21:13;3.08;;;1.85;;
36931;SDS011;22847;42.654;23.370;2023-03-08T14:24:03;7.93;;;3.45;;
36931;SDS011;22847;42.654;23.370;2023-03-08T14:31:28;3.35;;;2.00;;
36931;SDS011;22847;42.654;23.370;2023-03-08T14:34:01;7.93;;;3.25;;
36931;SDS011;22847;42.654;23.370;2023-03-08T14:36:28;12.57;;;6.97;;
36931;SDS011;22847;42.654;23.370;2023-03-08T14:38:55;7.15;;;3.92;;
36931;SDS011;22847;42.654;23.370;2023-03-08T14:41:30;4.95;;;2.00;;
36931;SDS011;22847;42.654;23.370;2023-03-08T14:43:58;3.22;;;1.58;;
36931;SDS011;22847;42.654;23.370;2023-03-08T14:46:25;4.07;;;1.80;;
36931;SDS011;22847;42.654;23.370;2023-03-08T14:49:02;4.45;;;1.65;;
36931;SDS011;22847;42.654;23.370;2023-03-08T14:51:35;7.85;;;1.90;;
36931;SDS011;22847;42.654;23.370;2023-03-08T14:54:05;2.60;;;1.38;;
36931;SDS011;22847;42.654;23.370;2023-03-08T14:56:43;2.10;;;1.30;;
36931;SDS011;22847;42.654;23.370;2023-03-08T14:59:09;6.38;;;1.75;;
36931;SDS011;22847;42.654;23.370;2023-03-08T15:01:36;2.17;;;1.60;;
36931;SDS011;22847;42.654;23.370;2023-03-08T15:04:02;4.88;;;1.67;;
36931;SDS011;22847;42.654;23.370;2023-03-08T15:06:31;5.07;;;1.55;;
36931;SDS011;22847;42.654;23.370;2023-03-08T15:08:59;2.53;;;1.50;;
36931;SDS011;22847;42.654;23.370;2023-03-08T15:11:26;4.72;;;1.38;;
36931;SDS011;22847;42.654;23.370;2023-03-08T15:13:55;2.72;;;1.60;;
36931;SDS011;22847;42.654;23.370;2023-03-08T15:16:21;2.35;;;1.60;;
36931;SDS011;22847;42.654;23.370;2023-03-08T15:18:47;4.93;;;1.75;;
36931;SDS011;22847;42.654;23.370;2023-03-08T15:21:12;3.40;;;1.60;;
36931;SDS011;22847;42.654;23.370;2023-03-08T15:23:40;4.85;;;1.88;;
36931;SDS011;22847;42.654;23.370;2023-03-08T15:26:09;3.50;;;1.77;;
36931;SDS011;22847;42.654;23.370;2023-03-08T15:28:38;7.03;;;2.88;;
36931;SDS011;22847;42.654;23.370;2023-03-08T15:31:03;5.18;;;2.65;;
36931;SDS011;22847;42.654;23.370;2023-03-08T15:33:29;2.28;;;1.70;;
36931;SDS011;22847;42.654;23.370;2023-03-08T15:35:54;4.90;;;2.30;;
36931;SDS011;22847;42.654;23.370;2023-03-08T15:38:20;3.83;;;2.10;;
36931;SDS011;22847;42.654;23.370;2023-03-08T15:40:45;6.07;;;2.05;;
36931;SDS011;22847;42.654;23.370;2023-03-08T15:43:10;6.43;;;2.10;;
36931;SDS011;22847;42.654;23.370;2023-03-08T15:45:36;4.63;;;1.95;;
36931;SDS011;22847;42.654;23.370;2023-03-08T15:50:27;16.02;;;2.60;;
36931;SDS011;22847;42.654;23.370;2023-03-08T15:52:53;13.93;;;4.50;;
36931;SDS011;22847;42.654;23.370;2023-03-08T15:55:20;6.13;;;1.80;;
36931;SDS011;22847;42.654;23.370;2023-03-08T15:57:47;2.78;;;1.65;;
36931;SDS011;22847;42.654;23.370;2023-03-08T16:00:13;2.00;;;1.70;;
36931;SDS011;22847;42.654;23.370;2023-03-08T16:02:39;11.00;;;3.25;;
36931;SDS011;22847;42.654;23.370;2023-03-08T16:05:05;4.57;;;2.55;;
36931;SDS011;22847;42.654;23.370;2023-03-08T16:07:32;8.48;;;3.40;;
36931;SDS011;22847;42.654;23.370;2023-03-08T16:09:58;4.47;;;2.80;;
36931;SDS011;22847;42.654;23.370;2023-03-08T16:12:23;3.58;;;2.00;;
36931;SDS011;22847;42.654;23.370;2023-03-08T16:14:49;5.65;;;2.88;;
36931;SDS011;22847;42.654;23.370;2023-03-08T16:17:16;9.23;;;3.67;;
36931;SDS011;22847;42.654;23.370;2023-03-08T16:19:42;5.70;;;2.60;;
36931;SDS011;22847;42.654;23.370;2023-03-08T16:22:08;13.55;;;5.35;;
36931;SDS011;22847;42.654;23.370;2023-03-08T16:24:33;5.60;;;2.65;;
36931;SDS011;22847;42.654;23.370;2023-03-08T16:26:59;2.80;;;2.17;;